DAL2104 KMSP-KLAX
Flight info
| Callsign | DAL2104 |
|---|---|
| Flight time | 3h 35m |
| Altitude | 34000 |
| Route | LEINY6 LEINY VIVID BFF CYS EKR HVE PROMT Q88 HAKMN ANJLL4 |
| Aircraft | B739/M-SDE2E3FGHIRWXY/LB1 |
Departure
| Time | 2026-05-05 17:59 |
|---|---|
| Airport | Minneapolis–Saint Paul International Airport / Wold–Chamberlain Field (KMSP) |
Arrival
| Time | 2026-05-05 21:35 |
|---|---|
| Airport | Los Angeles International Airport (KLAX) |
| Time | Latitude | Longitude | Altitude | Speed | Heading |
|---|---|---|---|---|---|
| 2026-05-05 17:32 | 44.88024 | -93.20942 | 834 ft | 0 kts | 31° |
| 2026-05-05 17:49 | 44.88023 | -93.20943 | 834 ft | 2 kts | 31° |
| 2026-05-05 17:50 | 44.88002 | -93.20961 | 825 ft | 4 kts | 33° |
| 2026-05-05 17:50 | 44.87979 | -93.20982 | 825 ft | 4 kts | 31° |
| 2026-05-05 17:50 | 44.87960 | -93.21001 | 830 ft | 4 kts | 61° |
| 2026-05-05 17:50 | 44.87959 | -93.21030 | 831 ft | 4 kts | 122° |
| 2026-05-05 17:51 | 44.87975 | -93.21061 | 831 ft | 4 kts | 124° |
| 2026-05-05 17:51 | 44.87979 | -93.21069 | 829 ft | 1 kts | 120° |
| 2026-05-05 17:55 | 44.87978 | -93.21067 | 833 ft | 2 kts | 120° |
| 2026-05-05 17:55 | 44.87959 | -93.21021 | 829 ft | 9 kts | 120° |
| 2026-05-05 17:55 | 44.87924 | -93.20938 | 833 ft | 10 kts | 121° |
| 2026-05-05 17:55 | 44.87890 | -93.20857 | 830 ft | 9 kts | 122° |
| 2026-05-05 17:56 | 44.87853 | -93.20770 | 834 ft | 14 kts | 121° |
| 2026-05-05 17:56 | 44.87800 | -93.20660 | 827 ft | 11 kts | 126° |
| 2026-05-05 17:56 | 44.87737 | -93.20636 | 832 ft | 9 kts | 195° |
| 2026-05-05 17:56 | 44.87674 | -93.20562 | 836 ft | 18 kts | 121° |
| 2026-05-05 17:57 | 44.87603 | -93.20399 | 826 ft | 20 kts | 121° |
| 2026-05-05 17:57 | 44.87536 | -93.20238 | 827 ft | 19 kts | 120° |
| 2026-05-05 17:57 | 44.87474 | -93.20103 | 828 ft | 13 kts | 129° |
| 2026-05-05 17:57 | 44.87403 | -93.20096 | 828 ft | 9 kts | 212° |
| 2026-05-05 17:58 | 44.87366 | -93.20157 | 828 ft | 8 kts | 280° |
| 2026-05-05 17:58 | 44.87385 | -93.20200 | 825 ft | 2 kts | 302° |
| 2026-05-05 17:58 | 44.87401 | -93.20239 | 825 ft | 9 kts | 301° |
| 2026-05-05 17:58 | 44.87516 | -93.20503 | 825 ft | 66 kts | 302° |
| 2026-05-05 17:59 | 44.87868 | -93.21307 | 828 ft | 129 kts | 302° |
| 2026-05-05 17:59 | 44.88438 | -93.22609 | 952 ft | 169 kts | 301° |
| 2026-05-05 17:59 | 44.89064 | -93.24024 | 1751 ft | 168 kts | 301° |
| 2026-05-05 17:59 | 44.89679 | -93.25439 | 2604 ft | 165 kts | 301° |
| 2026-05-05 18:00 | 44.90304 | -93.26893 | 3052 ft | 184 kts | 296° |
| 2026-05-05 18:00 | 44.90546 | -93.28745 | 3226 ft | 205 kts | 271° |
| 2026-05-05 18:00 | 44.90540 | -93.30820 | 3596 ft | 216 kts | 273° |
| 2026-05-05 18:00 | 44.90570 | -93.32980 | 4018 ft | 227 kts | 273° |
| 2026-05-05 18:01 | 44.90620 | -93.35308 | 4311 ft | 246 kts | 274° |
| 2026-05-05 18:01 | 44.90683 | -93.37723 | 5013 ft | 248 kts | 274° |
| 2026-05-05 18:01 | 44.90756 | -93.40143 | 5874 ft | 246 kts | 274° |
| 2026-05-05 18:01 | 44.90836 | -93.42558 | 6678 ft | 245 kts | 274° |
| 2026-05-05 18:02 | 44.90922 | -93.45008 | 7280 ft | 252 kts | 274° |
| 2026-05-05 18:02 | 44.91012 | -93.47494 | 8017 ft | 254 kts | 275° |
| 2026-05-05 18:02 | 44.91102 | -93.49957 | 8733 ft | 255 kts | 275° |
| 2026-05-05 18:02 | 44.91195 | -93.52451 | 9539 ft | 255 kts | 275° |
| 2026-05-05 18:03 | 44.91289 | -93.54964 | 10203 ft | 259 kts | 275° |
| 2026-05-05 18:03 | 44.91388 | -93.57594 | 10405 ft | 279 kts | 275° |
| 2026-05-05 18:03 | 44.91494 | -93.60417 | 10593 ft | 298 kts | 275° |
| 2026-05-05 18:03 | 44.91606 | -93.63435 | 10756 ft | 317 kts | 275° |
| 2026-05-05 18:04 | 44.91744 | -93.66615 | 11103 ft | 329 kts | 275° |
| 2026-05-05 18:04 | 44.91899 | -93.69858 | 11686 ft | 333 kts | 275° |
| 2026-05-05 18:04 | 44.92057 | -93.73122 | 12358 ft | 334 kts | 275° |
| 2026-05-05 18:04 | 44.92215 | -93.76405 | 13035 ft | 336 kts | 275° |
| 2026-05-05 18:05 | 44.92373 | -93.79715 | 13682 ft | 339 kts | 275° |
| 2026-05-05 18:05 | 44.92529 | -93.83045 | 14195 ft | 343 kts | 275° |
| 2026-05-05 18:05 | 44.92685 | -93.86423 | 14728 ft | 346 kts | 275° |
| 2026-05-05 18:05 | 44.92841 | -93.89817 | 15339 ft | 347 kts | 275° |
| 2026-05-05 18:06 | 44.92998 | -93.93234 | 15902 ft | 350 kts | 275° |
| 2026-05-05 18:06 | 44.93102 | -93.95511 | 16238 ft | 352 kts | 275° |
| 2026-05-05 18:06 | 44.93311 | -94.00150 | 16940 ft | 356 kts | 274° |
| 2026-05-05 18:06 | 44.93467 | -94.03651 | 17474 ft | 358 kts | 274° |
| 2026-05-05 18:07 | 44.93623 | -94.07171 | 17995 ft | 361 kts | 274° |
| 2026-05-05 18:07 | 44.93780 | -94.10724 | 18476 ft | 364 kts | 274° |
| 2026-05-05 18:07 | 44.93933 | -94.14235 | 19078 ft | 361 kts | 274° |
| 2026-05-05 18:07 | 44.94086 | -94.17747 | 19796 ft | 356 kts | 274° |
| 2026-05-05 18:08 | 44.94235 | -94.21215 | 20442 ft | 353 kts | 273° |
| 2026-05-05 18:08 | 44.94384 | -94.24670 | 21031 ft | 351 kts | 273° |
| 2026-05-05 18:08 | 44.94531 | -94.28099 | 21611 ft | 350 kts | 273° |
| 2026-05-05 18:08 | 44.94676 | -94.31522 | 22209 ft | 348 kts | 273° |
| 2026-05-05 18:09 | 44.94819 | -94.34922 | 22805 ft | 346 kts | 273° |
| 2026-05-05 18:09 | 44.94959 | -94.38308 | 23377 ft | 345 kts | 272° |
| 2026-05-05 18:09 | 44.95099 | -94.41692 | 23853 ft | 344 kts | 272° |
| 2026-05-05 18:09 | 44.95238 | -94.45078 | 24231 ft | 345 kts | 272° |
| 2026-05-05 18:10 | 44.95375 | -94.48470 | 24589 ft | 346 kts | 272° |
| 2026-05-05 18:10 | 44.95512 | -94.51865 | 24964 ft | 347 kts | 272° |
| 2026-05-05 18:10 | 44.95649 | -94.55265 | 25352 ft | 347 kts | 272° |
| 2026-05-05 18:10 | 44.95785 | -94.58683 | 25739 ft | 348 kts | 272° |
| 2026-05-05 18:11 | 44.95919 | -94.62068 | 25970 ft | 352 kts | 271° |
| 2026-05-05 18:11 | 44.96055 | -94.65527 | 26298 ft | 353 kts | 271° |
| 2026-05-05 18:11 | 44.96189 | -94.68981 | 26718 ft | 352 kts | 271° |
| 2026-05-05 18:11 | 44.96323 | -94.72437 | 27096 ft | 352 kts | 271° |
| 2026-05-05 18:12 | 44.96456 | -94.75888 | 27429 ft | 353 kts | 271° |
| 2026-05-05 18:12 | 44.96588 | -94.79353 | 27764 ft | 354 kts | 271° |
| 2026-05-05 18:12 | 44.96719 | -94.82817 | 28238 ft | 351 kts | 271° |
| 2026-05-05 18:12 | 44.96847 | -94.86224 | 28830 ft | 346 kts | 270° |
| 2026-05-05 18:13 | 44.96973 | -94.89586 | 29426 ft | 341 kts | 270° |
| 2026-05-05 18:13 | 44.97096 | -94.92903 | 29986 ft | 336 kts | 270° |
| 2026-05-05 18:13 | 44.97217 | -94.96190 | 30382 ft | 334 kts | 270° |
| 2026-05-05 18:13 | 44.97336 | -94.99463 | 30693 ft | 333 kts | 270° |
| 2026-05-05 18:14 | 44.97453 | -95.02731 | 30960 ft | 334 kts | 270° |
| 2026-05-05 18:14 | 44.97569 | -95.06018 | 31168 ft | 336 kts | 270° |
| 2026-05-05 18:14 | 44.97686 | -95.09322 | 31307 ft | 339 kts | 271° |
| 2026-05-05 18:14 | 44.97803 | -95.12674 | 31411 ft | 344 kts | 271° |
| 2026-05-05 18:15 | 44.97921 | -95.16069 | 31542 ft | 347 kts | 271° |
| 2026-05-05 18:15 | 44.98038 | -95.19477 | 31721 ft | 349 kts | 271° |
| 2026-05-05 18:15 | 44.98156 | -95.22908 | 31935 ft | 350 kts | 271° |
| 2026-05-05 18:15 | 44.98273 | -95.26352 | 32139 ft | 351 kts | 271° |
| 2026-05-05 18:16 | 44.98389 | -95.29796 | 32349 ft | 352 kts | 271° |
| 2026-05-05 18:16 | 44.98505 | -95.33260 | 32573 ft | 353 kts | 271° |
| 2026-05-05 18:16 | 44.98619 | -95.36693 | 32768 ft | 354 kts | 271° |
| 2026-05-05 18:16 | 44.98733 | -95.40173 | 32951 ft | 355 kts | 271° |
| 2026-05-05 18:17 | 44.98846 | -95.43671 | 33039 ft | 359 kts | 271° |
| 2026-05-05 18:17 | 44.99074 | -95.50798 | 33212 ft | 365 kts | 271° |
| 2026-05-05 18:17 | 44.99187 | -95.54394 | 33405 ft | 366 kts | 271° |
| 2026-05-05 18:18 | 44.99299 | -95.57995 | 33625 ft | 366 kts | 271° |
| 2026-05-05 18:18 | 44.99411 | -95.61593 | 33815 ft | 367 kts | 271° |
| 2026-05-05 18:18 | 44.99521 | -95.65205 | 33946 ft | 368 kts | 271° |
| 2026-05-05 18:19 | 44.99739 | -95.72455 | 33966 ft | 369 kts | 271° |
| 2026-05-05 18:19 | 44.99951 | -95.79641 | 33968 ft | 367 kts | 271° |
| 2026-05-05 18:20 | 45.00158 | -95.86834 | 33970 ft | 365 kts | 271° |
| 2026-05-05 18:20 | 45.00360 | -95.93995 | 33970 ft | 364 kts | 271° |
| 2026-05-05 18:21 | 45.00558 | -96.01147 | 33966 ft | 364 kts | 271° |
| 2026-05-05 18:21 | 45.00750 | -96.08301 | 33975 ft | 364 kts | 271° |
| 2026-05-05 18:22 | 45.00938 | -96.15421 | 33973 ft | 365 kts | 271° |
| 2026-05-05 18:22 | 45.01122 | -96.22617 | 33985 ft | 367 kts | 271° |
| 2026-05-05 18:23 | 45.01304 | -96.29853 | 33982 ft | 370 kts | 271° |
| 2026-05-05 18:23 | 45.01453 | -96.35957 | 33983 ft | 372 kts | 271° |
| 2026-05-05 18:24 | 45.01627 | -96.43260 | 33989 ft | 375 kts | 271° |
| 2026-05-05 18:24 | 45.01799 | -96.50659 | 33987 ft | 378 kts | 271° |
| 2026-05-05 18:25 | 45.01969 | -96.58145 | 33986 ft | 381 kts | 271° |
| 2026-05-05 18:25 | 45.02133 | -96.65639 | 33982 ft | 382 kts | 271° |
| 2026-05-05 18:26 | 45.02292 | -96.73105 | 33990 ft | 382 kts | 271° |
| 2026-05-05 18:26 | 45.02447 | -96.80618 | 33981 ft | 382 kts | 271° |
| 2026-05-05 18:27 | 45.02597 | -96.88115 | 33981 ft | 381 kts | 271° |
| 2026-05-05 18:27 | 45.02741 | -96.95578 | 33981 ft | 379 kts | 271° |
| 2026-05-05 18:28 | 45.02948 | -97.06752 | 33988 ft | 378 kts | 271° |
| 2026-05-05 18:28 | 45.03080 | -97.14179 | 33991 ft | 377 kts | 271° |
| 2026-05-05 18:29 | 45.03206 | -97.21592 | 33992 ft | 377 kts | 271° |
| 2026-05-05 18:29 | 45.03328 | -97.29000 | 33995 ft | 377 kts | 271° |
| 2026-05-05 18:30 | 45.03444 | -97.36402 | 34001 ft | 377 kts | 271° |
| 2026-05-05 18:30 | 45.03557 | -97.43824 | 34004 ft | 378 kts | 271° |
| 2026-05-05 18:31 | 45.03666 | -97.51269 | 34002 ft | 379 kts | 271° |
| 2026-05-05 18:31 | 45.03314 | -97.58630 | 34004 ft | 380 kts | 258° |
| 2026-05-05 18:32 | 45.01549 | -97.65710 | 33997 ft | 386 kts | 246° |
| 2026-05-05 18:32 | 44.98619 | -97.72133 | 33994 ft | 390 kts | 241° |
| 2026-05-05 18:33 | 44.95550 | -97.78459 | 33998 ft | 390 kts | 240° |
| 2026-05-05 18:33 | 44.92478 | -97.84787 | 34009 ft | 390 kts | 241° |
| 2026-05-05 18:34 | 44.89431 | -97.91112 | 33996 ft | 389 kts | 241° |
| 2026-05-05 18:34 | 44.86405 | -97.97409 | 34002 ft | 386 kts | 241° |
| 2026-05-05 18:35 | 44.83403 | -98.03642 | 33992 ft | 383 kts | 241° |
| 2026-05-05 18:35 | 44.80415 | -98.09830 | 34012 ft | 380 kts | 241° |
| 2026-05-05 18:36 | 44.77458 | -98.15940 | 34009 ft | 379 kts | 241° |
| 2026-05-05 18:36 | 44.74491 | -98.22057 | 34018 ft | 378 kts | 241° |
| 2026-05-05 18:37 | 44.71515 | -98.28181 | 34016 ft | 378 kts | 241° |
| 2026-05-05 18:37 | 44.68539 | -98.34294 | 34008 ft | 379 kts | 241° |
| 2026-05-05 18:38 | 44.65559 | -98.40397 | 34015 ft | 379 kts | 241° |
| 2026-05-05 18:38 | 44.62586 | -98.46474 | 34022 ft | 380 kts | 241° |
| 2026-05-05 18:39 | 44.59570 | -98.52626 | 34021 ft | 380 kts | 241° |
| 2026-05-05 18:39 | 44.56584 | -98.58705 | 34021 ft | 381 kts | 241° |
| 2026-05-05 18:40 | 44.53579 | -98.64808 | 34021 ft | 381 kts | 241° |
| 2026-05-05 18:40 | 44.50564 | -98.70919 | 34025 ft | 381 kts | 241° |
| 2026-05-05 18:41 | 44.47542 | -98.77031 | 34023 ft | 381 kts | 241° |
| 2026-05-05 18:41 | 44.44520 | -98.83131 | 34028 ft | 381 kts | 241° |
| 2026-05-05 18:42 | 44.41490 | -98.89234 | 34025 ft | 382 kts | 240° |
| 2026-05-05 18:42 | 44.38454 | -98.95336 | 34031 ft | 382 kts | 240° |
| 2026-05-05 18:43 | 44.35411 | -99.01439 | 34030 ft | 382 kts | 240° |
| 2026-05-05 18:43 | 44.32380 | -99.07505 | 34032 ft | 383 kts | 240° |
| 2026-05-05 18:44 | 44.29325 | -99.13607 | 34029 ft | 383 kts | 240° |
| 2026-05-05 18:44 | 44.26271 | -99.19693 | 34032 ft | 383 kts | 240° |
| 2026-05-05 18:45 | 44.23212 | -99.25777 | 34026 ft | 382 kts | 240° |
| 2026-05-05 18:45 | 44.20184 | -99.31781 | 34035 ft | 376 kts | 240° |
| 2026-05-05 18:46 | 44.17182 | -99.37726 | 34038 ft | 373 kts | 240° |
| 2026-05-05 18:46 | 44.14194 | -99.43635 | 34045 ft | 372 kts | 240° |
| 2026-05-05 18:47 | 44.11230 | -99.49485 | 34045 ft | 373 kts | 240° |
| 2026-05-05 18:47 | 44.08231 | -99.55391 | 34054 ft | 375 kts | 240° |
| 2026-05-05 18:48 | 44.05203 | -99.61344 | 34052 ft | 378 kts | 240° |
| 2026-05-05 18:48 | 44.02152 | -99.67326 | 34057 ft | 380 kts | 240° |
| 2026-05-05 18:49 | 43.99080 | -99.73337 | 34051 ft | 381 kts | 240° |
| 2026-05-05 18:49 | 43.96024 | -99.79302 | 34051 ft | 381 kts | 240° |
| 2026-05-05 18:50 | 43.92954 | -99.85285 | 34041 ft | 380 kts | 240° |
| 2026-05-05 18:50 | 43.89896 | -99.91234 | 34056 ft | 378 kts | 240° |
| 2026-05-05 18:51 | 43.86837 | -99.97172 | 34050 ft | 377 kts | 240° |
| 2026-05-05 18:51 | 43.83756 | -100.03068 | 34052 ft | 377 kts | 239° |
| 2026-05-05 18:52 | 43.80659 | -100.08876 | 34059 ft | 376 kts | 239° |
| 2026-05-05 18:52 | 43.77551 | -100.14692 | 34057 ft | 376 kts | 239° |
| 2026-05-05 18:53 | 43.74449 | -100.20497 | 34046 ft | 374 kts | 239° |
| 2026-05-05 18:53 | 43.71360 | -100.26273 | 34055 ft | 373 kts | 239° |
| 2026-05-05 18:54 | 43.68276 | -100.32031 | 34056 ft | 372 kts | 239° |
| 2026-05-05 18:54 | 43.65189 | -100.37785 | 34054 ft | 372 kts | 239° |
| 2026-05-05 18:55 | 43.62100 | -100.43531 | 34057 ft | 373 kts | 239° |
| 2026-05-05 18:55 | 43.59019 | -100.49251 | 34057 ft | 374 kts | 239° |
| 2026-05-05 18:56 | 43.55908 | -100.55014 | 34056 ft | 374 kts | 239° |
| 2026-05-05 18:56 | 43.52796 | -100.60771 | 34033 ft | 374 kts | 238° |
| 2026-05-05 18:57 | 43.49685 | -100.66511 | 34050 ft | 373 kts | 238° |
| 2026-05-05 18:57 | 43.46577 | -100.72233 | 34045 ft | 373 kts | 238° |
| 2026-05-05 18:58 | 43.43473 | -100.77938 | 34046 ft | 372 kts | 238° |
| 2026-05-05 18:58 | 43.40374 | -100.83624 | 34037 ft | 371 kts | 238° |
| 2026-05-05 18:59 | 43.37282 | -100.89285 | 34038 ft | 370 kts | 238° |
| 2026-05-05 18:59 | 43.34188 | -100.94939 | 34038 ft | 369 kts | 238° |
| 2026-05-05 19:00 | 43.31103 | -101.00567 | 34042 ft | 369 kts | 238° |
| 2026-05-05 19:00 | 43.28038 | -101.06149 | 34037 ft | 367 kts | 237° |
| 2026-05-05 19:01 | 43.24957 | -101.11747 | 34052 ft | 367 kts | 237° |
| 2026-05-05 19:01 | 43.21882 | -101.17325 | 34051 ft | 367 kts | 237° |
| 2026-05-05 19:02 | 43.18801 | -101.22902 | 34053 ft | 367 kts | 237° |
| 2026-05-05 19:02 | 43.15720 | -101.28472 | 34059 ft | 367 kts | 237° |
| 2026-05-05 19:03 | 43.12627 | -101.34049 | 34062 ft | 367 kts | 237° |
| 2026-05-05 19:03 | 43.09555 | -101.39579 | 34063 ft | 367 kts | 237° |
| 2026-05-05 19:04 | 43.06456 | -101.45148 | 34067 ft | 368 kts | 237° |
| 2026-05-05 19:04 | 43.03356 | -101.50708 | 34060 ft | 367 kts | 237° |
| 2026-05-05 19:05 | 43.00252 | -101.56263 | 34065 ft | 368 kts | 237° |
| 2026-05-05 19:05 | 42.97141 | -101.61823 | 34066 ft | 368 kts | 237° |
| 2026-05-05 19:06 | 42.94046 | -101.67341 | 34065 ft | 368 kts | 237° |
| 2026-05-05 19:06 | 42.90911 | -101.72923 | 34064 ft | 369 kts | 237° |
| 2026-05-05 19:07 | 42.88313 | -101.77538 | 34058 ft | 369 kts | 237° |
| 2026-05-05 19:07 | 42.84677 | -101.83987 | 34055 ft | 369 kts | 237° |
| 2026-05-05 19:08 | 42.81546 | -101.89530 | 34054 ft | 369 kts | 237° |
| 2026-05-05 19:08 | 42.78409 | -101.95073 | 34047 ft | 368 kts | 236° |
| 2026-05-05 19:09 | 42.75280 | -102.00589 | 34048 ft | 368 kts | 236° |
| 2026-05-05 19:09 | 42.72674 | -102.05177 | 34032 ft | 368 kts | 236° |
| 2026-05-05 19:10 | 42.69541 | -102.10684 | 34048 ft | 368 kts | 236° |
| 2026-05-05 19:10 | 42.66398 | -102.16198 | 34053 ft | 369 kts | 236° |
| 2026-05-05 19:11 | 42.63246 | -102.21717 | 34072 ft | 369 kts | 236° |
| 2026-05-05 19:11 | 42.60091 | -102.27231 | 34064 ft | 370 kts | 236° |
| 2026-05-05 19:12 | 42.56927 | -102.32751 | 34072 ft | 370 kts | 236° |
| 2026-05-05 19:12 | 42.53763 | -102.38259 | 34062 ft | 370 kts | 236° |
| 2026-05-05 19:13 | 42.50592 | -102.43771 | 34062 ft | 370 kts | 236° |
| 2026-05-05 19:13 | 42.47437 | -102.49245 | 34051 ft | 371 kts | 236° |
| 2026-05-05 19:14 | 42.44256 | -102.54753 | 34055 ft | 371 kts | 236° |
| 2026-05-05 19:14 | 42.41071 | -102.60258 | 34056 ft | 371 kts | 236° |
| 2026-05-05 19:15 | 42.37882 | -102.65761 | 34047 ft | 371 kts | 236° |
| 2026-05-05 19:15 | 42.34693 | -102.71253 | 34048 ft | 371 kts | 236° |
| 2026-05-05 19:16 | 42.31500 | -102.76741 | 34043 ft | 371 kts | 235° |
| 2026-05-05 19:16 | 42.28332 | -102.82177 | 34047 ft | 370 kts | 235° |
| 2026-05-05 19:17 | 42.25143 | -102.87640 | 34042 ft | 370 kts | 235° |
| 2026-05-05 19:17 | 42.21947 | -102.93104 | 34052 ft | 371 kts | 235° |
| 2026-05-05 19:18 | 42.18744 | -102.98571 | 34038 ft | 372 kts | 235° |
| 2026-05-05 19:18 | 42.15525 | -103.04055 | 34035 ft | 373 kts | 235° |
| 2026-05-05 19:19 | 42.12304 | -103.09531 | 34018 ft | 373 kts | 235° |
| 2026-05-05 19:19 | 42.09068 | -103.15023 | 34010 ft | 374 kts | 235° |
| 2026-05-05 19:20 | 42.05843 | -103.20487 | 34037 ft | 375 kts | 234° |
| 2026-05-05 19:20 | 42.02591 | -103.25988 | 34025 ft | 376 kts | 234° |
| 2026-05-05 19:21 | 41.99332 | -103.31489 | 34028 ft | 377 kts | 234° |
| 2026-05-05 19:21 | 41.96060 | -103.37003 | 34032 ft | 377 kts | 234° |
| 2026-05-05 19:22 | 41.94438 | -103.39731 | 34339 ft | 345 kts | 235° |
| 2026-05-05 19:22 | 41.92910 | -103.42307 | 33779 ft | 366 kts | 235° |
| 2026-05-05 19:22 | 41.91370 | -103.45006 | 33569 ft | 369 kts | 235° |
| 2026-05-05 19:22 | 41.89809 | -103.47629 | 33642 ft | 373 kts | 234° |
| 2026-05-05 19:23 | 41.86665 | -103.53244 | 33782 ft | 380 kts | 238° |
| 2026-05-05 19:23 | 41.85164 | -103.56166 | 34020 ft | 378 kts | 238° |
| 2026-05-05 19:23 | 41.83668 | -103.59101 | 34004 ft | 380 kts | 238° |
| 2026-05-05 19:24 | 41.80695 | -103.64899 | 34033 ft | 377 kts | 238° |
| 2026-05-05 19:24 | 41.77706 | -103.70668 | 34027 ft | 375 kts | 238° |
| 2026-05-05 19:25 | 41.74720 | -103.76394 | 34035 ft | 374 kts | 237° |
| 2026-05-05 19:25 | 41.71742 | -103.82090 | 34041 ft | 376 kts | 237° |
| 2026-05-05 19:26 | 41.68710 | -103.87876 | 34037 ft | 382 kts | 237° |
| 2026-05-05 19:26 | 41.65641 | -103.93721 | 34066 ft | 386 kts | 237° |
| 2026-05-05 19:27 | 41.62538 | -103.99615 | 34060 ft | 389 kts | 237° |
| 2026-05-05 19:27 | 41.59429 | -104.05510 | 34047 ft | 385 kts | 237° |
| 2026-05-05 19:28 | 41.56393 | -104.11254 | 34051 ft | 378 kts | 237° |
| 2026-05-05 19:28 | 41.53353 | -104.16999 | 34057 ft | 378 kts | 237° |
| 2026-05-05 19:29 | 41.50319 | -104.22722 | 34049 ft | 377 kts | 237° |
| 2026-05-05 19:29 | 41.47264 | -104.28476 | 34069 ft | 383 kts | 237° |
| 2026-05-05 19:30 | 41.44153 | -104.34322 | 34065 ft | 388 kts | 237° |
| 2026-05-05 19:30 | 41.41023 | -104.40191 | 34068 ft | 389 kts | 237° |
| 2026-05-05 19:31 | 41.37882 | -104.46070 | 34061 ft | 389 kts | 237° |
| 2026-05-05 19:31 | 41.34760 | -104.51902 | 34049 ft | 389 kts | 237° |
| 2026-05-05 19:32 | 41.31616 | -104.57763 | 34044 ft | 388 kts | 237° |
| 2026-05-05 19:32 | 41.28480 | -104.63601 | 34046 ft | 387 kts | 237° |
| 2026-05-05 19:33 | 41.25352 | -104.69416 | 34037 ft | 386 kts | 237° |
| 2026-05-05 19:33 | 41.22234 | -104.75197 | 34028 ft | 385 kts | 237° |
| 2026-05-05 19:34 | 41.19648 | -104.81365 | 34044 ft | 381 kts | 246° |
| 2026-05-05 19:35 | 41.16382 | -104.90954 | 34039 ft | 381 kts | 246° |
| 2026-05-05 19:35 | 41.14178 | -104.97362 | 34036 ft | 382 kts | 246° |
| 2026-05-05 19:36 | 41.11957 | -105.03784 | 34043 ft | 384 kts | 246° |
| 2026-05-05 19:36 | 41.09718 | -105.10240 | 34043 ft | 386 kts | 246° |
| 2026-05-05 19:37 | 41.07463 | -105.16726 | 34040 ft | 388 kts | 246° |
| 2026-05-05 19:37 | 41.05209 | -105.23191 | 34030 ft | 390 kts | 246° |
| 2026-05-05 19:38 | 41.02931 | -105.29713 | 34008 ft | 391 kts | 246° |
| 2026-05-05 19:38 | 41.00635 | -105.36268 | 34016 ft | 392 kts | 246° |
| 2026-05-05 19:39 | 40.98335 | -105.42823 | 34014 ft | 393 kts | 246° |
| 2026-05-05 19:39 | 40.96024 | -105.49391 | 34014 ft | 393 kts | 246° |
| 2026-05-05 19:40 | 40.93717 | -105.55934 | 33984 ft | 393 kts | 246° |
| 2026-05-05 19:40 | 40.91417 | -105.62443 | 33976 ft | 392 kts | 246° |
| 2026-05-05 19:41 | 40.89107 | -105.68965 | 33965 ft | 391 kts | 245° |
| 2026-05-05 19:41 | 40.86797 | -105.75472 | 33972 ft | 392 kts | 245° |
| 2026-05-05 19:42 | 40.84468 | -105.82018 | 33929 ft | 395 kts | 245° |
| 2026-05-05 19:42 | 40.82123 | -105.88592 | 33926 ft | 395 kts | 245° |
| 2026-05-05 19:43 | 40.79776 | -105.95156 | 33913 ft | 395 kts | 245° |
| 2026-05-05 19:43 | 40.77443 | -106.01667 | 33886 ft | 395 kts | 245° |
| 2026-05-05 19:44 | 40.75090 | -106.08221 | 33898 ft | 396 kts | 245° |
| 2026-05-05 19:44 | 40.72720 | -106.14805 | 33891 ft | 398 kts | 245° |
| 2026-05-05 19:45 | 40.70336 | -106.21414 | 33871 ft | 400 kts | 245° |
| 2026-05-05 19:45 | 40.67943 | -106.28034 | 33874 ft | 401 kts | 245° |
| 2026-05-05 19:46 | 40.65536 | -106.34675 | 33877 ft | 402 kts | 245° |
| 2026-05-05 19:46 | 40.63114 | -106.41343 | 33862 ft | 404 kts | 245° |
| 2026-05-05 19:47 | 40.60700 | -106.47972 | 33875 ft | 404 kts | 245° |
| 2026-05-05 19:47 | 40.58263 | -106.54652 | 33880 ft | 405 kts | 245° |
| 2026-05-05 19:48 | 40.55823 | -106.61323 | 33868 ft | 405 kts | 245° |
| 2026-05-05 19:48 | 40.53378 | -106.67991 | 33895 ft | 405 kts | 245° |
| 2026-05-05 19:49 | 40.50937 | -106.74633 | 33907 ft | 406 kts | 245° |
| 2026-05-05 19:49 | 40.48475 | -106.81319 | 33912 ft | 407 kts | 245° |
| 2026-05-05 19:50 | 40.46000 | -106.88025 | 33873 ft | 408 kts | 245° |
| 2026-05-05 19:50 | 40.43509 | -106.94757 | 33893 ft | 410 kts | 245° |
| 2026-05-05 19:51 | 40.41014 | -107.01486 | 33910 ft | 410 kts | 245° |
| 2026-05-05 19:51 | 40.38509 | -107.08225 | 33903 ft | 411 kts | 245° |
| 2026-05-05 19:52 | 40.35995 | -107.14973 | 33916 ft | 412 kts | 245° |
| 2026-05-05 19:52 | 40.33492 | -107.21677 | 33923 ft | 413 kts | 245° |
| 2026-05-05 19:53 | 40.30957 | -107.28451 | 33919 ft | 414 kts | 245° |
| 2026-05-05 19:53 | 40.28406 | -107.35249 | 33891 ft | 417 kts | 245° |
| 2026-05-05 19:54 | 40.25846 | -107.42060 | 33869 ft | 417 kts | 245° |
| 2026-05-05 19:54 | 40.23276 | -107.48879 | 33867 ft | 417 kts | 245° |
| 2026-05-05 19:55 | 40.20702 | -107.55693 | 33854 ft | 417 kts | 244° |
| 2026-05-05 19:55 | 40.18121 | -107.62509 | 33837 ft | 418 kts | 244° |
| 2026-05-05 19:56 | 40.15551 | -107.69283 | 33810 ft | 419 kts | 244° |
| 2026-05-05 19:56 | 40.12958 | -107.76102 | 33770 ft | 419 kts | 244° |
| 2026-05-05 19:57 | 40.10357 | -107.82928 | 33785 ft | 420 kts | 244° |
| 2026-05-05 19:57 | 40.07738 | -107.89783 | 33949 ft | 422 kts | 244° |
| 2026-05-05 19:58 | 40.05260 | -107.95277 | 33956 ft | 424 kts | 235° |
| 2026-05-05 19:58 | 40.01703 | -108.01445 | 33947 ft | 425 kts | 234° |
| 2026-05-05 19:59 | 39.98125 | -108.07584 | 33903 ft | 425 kts | 234° |
| 2026-05-05 19:59 | 39.94586 | -108.13711 | 33860 ft | 426 kts | 234° |
| 2026-05-05 20:00 | 39.91032 | -108.19896 | 33818 ft | 426 kts | 234° |
| 2026-05-05 20:00 | 39.87484 | -108.26072 | 33782 ft | 425 kts | 234° |
| 2026-05-05 20:01 | 39.83942 | -108.32226 | 33739 ft | 424 kts | 234° |
| 2026-05-05 20:01 | 39.80406 | -108.38359 | 33739 ft | 422 kts | 234° |
| 2026-05-05 20:02 | 39.76881 | -108.44458 | 33717 ft | 421 kts | 234° |
| 2026-05-05 20:02 | 39.73352 | -108.50553 | 33718 ft | 422 kts | 234° |
| 2026-05-05 20:03 | 39.69819 | -108.56645 | 33728 ft | 423 kts | 234° |
| 2026-05-05 20:03 | 39.66288 | -108.62720 | 33740 ft | 425 kts | 234° |
| 2026-05-05 20:04 | 39.62712 | -108.68860 | 33728 ft | 427 kts | 234° |
| 2026-05-05 20:04 | 39.59119 | -108.75019 | 33730 ft | 429 kts | 234° |
| 2026-05-05 20:05 | 39.55518 | -108.81177 | 33697 ft | 426 kts | 234° |
| 2026-05-05 20:05 | 39.51950 | -108.87269 | 33685 ft | 423 kts | 234° |
| 2026-05-05 20:06 | 39.48402 | -108.93315 | 33687 ft | 421 kts | 234° |
| 2026-05-05 20:06 | 39.44858 | -108.99341 | 33707 ft | 426 kts | 234° |
| 2026-05-05 20:07 | 39.41254 | -109.05459 | 33716 ft | 429 kts | 234° |
| 2026-05-05 20:07 | 39.37619 | -109.11613 | 33687 ft | 430 kts | 234° |
| 2026-05-05 20:08 | 39.33981 | -109.17766 | 33706 ft | 431 kts | 234° |
| 2026-05-05 20:08 | 39.30320 | -109.23951 | 33707 ft | 435 kts | 234° |
| 2026-05-05 20:09 | 39.26635 | -109.30159 | 33687 ft | 435 kts | 234° |
| 2026-05-05 20:09 | 39.23006 | -109.36258 | 33670 ft | 427 kts | 233° |
| 2026-05-05 20:10 | 39.19411 | -109.42285 | 33678 ft | 423 kts | 234° |
| 2026-05-05 20:10 | 39.15809 | -109.48322 | 33680 ft | 427 kts | 234° |
| 2026-05-05 20:11 | 39.12153 | -109.54438 | 33705 ft | 433 kts | 234° |
| 2026-05-05 20:11 | 39.08446 | -109.60622 | 33703 ft | 438 kts | 234° |
| 2026-05-05 20:12 | 39.04738 | -109.66797 | 33714 ft | 439 kts | 234° |
| 2026-05-05 20:12 | 39.00992 | -109.73020 | 33754 ft | 438 kts | 233° |
| 2026-05-05 20:13 | 38.97280 | -109.79179 | 33772 ft | 433 kts | 233° |
| 2026-05-05 20:13 | 38.93585 | -109.85296 | 33783 ft | 436 kts | 233° |
| 2026-05-05 20:14 | 38.89826 | -109.91513 | 33791 ft | 444 kts | 233° |
| 2026-05-05 20:14 | 38.86022 | -109.97778 | 33770 ft | 446 kts | 234° |
| 2026-05-05 20:15 | 38.82219 | -110.04031 | 33762 ft | 446 kts | 234° |
| 2026-05-05 20:15 | 38.78395 | -110.10315 | 33720 ft | 447 kts | 234° |
| 2026-05-05 20:16 | 38.74572 | -110.16587 | 33691 ft | 446 kts | 233° |
| 2026-05-05 20:16 | 38.70741 | -110.22857 | 33699 ft | 447 kts | 233° |
| 2026-05-05 20:17 | 38.66905 | -110.29123 | 33702 ft | 447 kts | 233° |
| 2026-05-05 20:17 | 38.63070 | -110.35377 | 33687 ft | 446 kts | 234° |
| 2026-05-05 20:18 | 38.59236 | -110.41615 | 33686 ft | 445 kts | 233° |
| 2026-05-05 20:18 | 38.55438 | -110.47781 | 33693 ft | 444 kts | 233° |
| 2026-05-05 20:19 | 38.51602 | -110.53998 | 33706 ft | 444 kts | 233° |
| 2026-05-05 20:19 | 38.47760 | -110.60215 | 33700 ft | 446 kts | 232° |
| 2026-05-05 20:19 | 38.45859 | -110.63288 | 33878 ft | 447 kts | 233° |
| 2026-05-05 20:20 | 38.43929 | -110.66404 | 33868 ft | 448 kts | 233° |
| 2026-05-05 20:20 | 38.39923 | -110.72537 | 33860 ft | 451 kts | 227° |
| 2026-05-05 20:21 | 38.35510 | -110.78256 | 33875 ft | 453 kts | 226° |
| 2026-05-05 20:21 | 38.31068 | -110.83880 | 33818 ft | 449 kts | 226° |
| 2026-05-05 20:22 | 38.26653 | -110.89538 | 33808 ft | 451 kts | 226° |
| 2026-05-05 20:22 | 38.22242 | -110.95232 | 33759 ft | 453 kts | 226° |
| 2026-05-05 20:23 | 38.17819 | -111.00948 | 33730 ft | 455 kts | 226° |
| 2026-05-05 20:23 | 38.13367 | -111.06689 | 33731 ft | 456 kts | 226° |
| 2026-05-05 20:24 | 38.08908 | -111.12427 | 33723 ft | 456 kts | 226° |
| 2026-05-05 20:24 | 38.04462 | -111.18137 | 33737 ft | 451 kts | 226° |
| 2026-05-05 20:25 | 38.00118 | -111.23704 | 33727 ft | 445 kts | 226° |
| 2026-05-05 20:25 | 37.95764 | -111.29275 | 33740 ft | 444 kts | 225° |
| 2026-05-05 20:26 | 37.91414 | -111.34832 | 33741 ft | 444 kts | 226° |
| 2026-05-05 20:26 | 37.87052 | -111.40394 | 33740 ft | 445 kts | 226° |
| 2026-05-05 20:27 | 37.82710 | -111.45921 | 33751 ft | 446 kts | 225° |
| 2026-05-05 20:27 | 37.78323 | -111.51495 | 33754 ft | 447 kts | 225° |
| 2026-05-05 20:28 | 37.73981 | -111.57002 | 33755 ft | 434 kts | 225° |
| 2026-05-05 20:28 | 37.69750 | -111.62358 | 33755 ft | 428 kts | 225° |
| 2026-05-05 20:29 | 37.65524 | -111.67700 | 33751 ft | 432 kts | 225° |
| 2026-05-05 20:29 | 37.61252 | -111.73092 | 33764 ft | 437 kts | 225° |
| 2026-05-05 20:30 | 37.56946 | -111.78517 | 33786 ft | 437 kts | 225° |
| 2026-05-05 20:30 | 37.52654 | -111.83916 | 33816 ft | 442 kts | 225° |
| 2026-05-05 20:31 | 37.48471 | -111.89666 | 33834 ft | 447 kts | 233° |
| 2026-05-05 20:31 | 37.44914 | -111.95912 | 33810 ft | 429 kts | 234° |
| 2026-05-05 20:32 | 37.41471 | -112.01905 | 33797 ft | 419 kts | 233° |
| 2026-05-05 20:32 | 37.37976 | -112.07853 | 33800 ft | 425 kts | 233° |
| 2026-05-05 20:33 | 37.34445 | -112.13878 | 33786 ft | 431 kts | 233° |
| 2026-05-05 20:33 | 37.30863 | -112.20002 | 33803 ft | 438 kts | 233° |
| 2026-05-05 20:34 | 37.27226 | -112.26207 | 33799 ft | 443 kts | 233° |
| 2026-05-05 20:34 | 37.23582 | -112.32412 | 33792 ft | 443 kts | 233° |
| 2026-05-05 20:35 | 37.19940 | -112.38601 | 33800 ft | 436 kts | 233° |
| 2026-05-05 20:35 | 37.16347 | -112.44695 | 33804 ft | 432 kts | 233° |
| 2026-05-05 20:36 | 37.12762 | -112.50767 | 33817 ft | 434 kts | 233° |
| 2026-05-05 20:36 | 37.09157 | -112.56859 | 33810 ft | 436 kts | 233° |
| 2026-05-05 20:37 | 37.05564 | -112.62920 | 33832 ft | 436 kts | 233° |
| 2026-05-05 20:37 | 37.01941 | -112.69012 | 33870 ft | 436 kts | 233° |
| 2026-05-05 20:38 | 36.98325 | -112.75080 | 33913 ft | 435 kts | 233° |
| 2026-05-05 20:38 | 36.94701 | -112.81154 | 33931 ft | 435 kts | 233° |
| 2026-05-05 20:39 | 36.91070 | -112.87228 | 33967 ft | 436 kts | 233° |
| 2026-05-05 20:39 | 36.87453 | -112.93270 | 33978 ft | 437 kts | 233° |
| 2026-05-05 20:40 | 36.83798 | -112.99363 | 33963 ft | 439 kts | 233° |
| 2026-05-05 20:40 | 36.80125 | -113.05476 | 33955 ft | 440 kts | 233° |
| 2026-05-05 20:41 | 36.76454 | -113.11575 | 33913 ft | 439 kts | 233° |
| 2026-05-05 20:41 | 36.72782 | -113.17664 | 33869 ft | 438 kts | 233° |
| 2026-05-05 20:42 | 36.69116 | -113.23734 | 33839 ft | 437 kts | 233° |
| 2026-05-05 20:42 | 36.65484 | -113.29740 | 33815 ft | 436 kts | 233° |
| 2026-05-05 20:43 | 36.61838 | -113.35774 | 33821 ft | 435 kts | 233° |
| 2026-05-05 20:43 | 36.58326 | -113.41908 | 33825 ft | 434 kts | 234° |
| 2026-05-05 20:44 | 36.54859 | -113.48067 | 33824 ft | 435 kts | 234° |
| 2026-05-05 20:44 | 36.51379 | -113.54212 | 33827 ft | 435 kts | 234° |
| 2026-05-05 20:45 | 36.46130 | -113.63413 | 33837 ft | 437 kts | 234° |
| 2026-05-05 20:45 | 36.42611 | -113.69560 | 33832 ft | 437 kts | 234° |
| 2026-05-05 20:46 | 36.39096 | -113.75689 | 33841 ft | 435 kts | 234° |
| 2026-05-05 20:46 | 36.36171 | -113.80782 | 33820 ft | 435 kts | 234° |
| 2026-05-05 20:47 | 36.32658 | -113.86888 | 33815 ft | 434 kts | 234° |
| 2026-05-05 20:47 | 36.29156 | -113.92965 | 33815 ft | 433 kts | 234° |
| 2026-05-05 20:48 | 36.25656 | -113.99028 | 33824 ft | 432 kts | 234° |
| 2026-05-05 20:48 | 36.22160 | -114.05073 | 33806 ft | 432 kts | 234° |
| 2026-05-05 20:49 | 36.18657 | -114.11121 | 33823 ft | 432 kts | 234° |
| 2026-05-05 20:49 | 36.15141 | -114.17180 | 33825 ft | 434 kts | 234° |
| 2026-05-05 20:50 | 36.11608 | -114.23260 | 33819 ft | 436 kts | 234° |
| 2026-05-05 20:50 | 36.08019 | -114.29359 | 33816 ft | 438 kts | 231° |
| 2026-05-05 20:51 | 36.04045 | -114.34997 | 33805 ft | 437 kts | 228° |
| 2026-05-05 20:51 | 35.99953 | -114.40533 | 33799 ft | 435 kts | 228° |
| 2026-05-05 20:52 | 35.95896 | -114.46078 | 33819 ft | 434 kts | 228° |
| 2026-05-05 20:52 | 35.91877 | -114.51619 | 33837 ft | 433 kts | 228° |
| 2026-05-05 20:53 | 35.87867 | -114.57155 | 33844 ft | 432 kts | 228° |
| 2026-05-05 20:53 | 35.83870 | -114.62665 | 33827 ft | 432 kts | 228° |
| 2026-05-05 20:54 | 35.79862 | -114.68179 | 33863 ft | 432 kts | 228° |
| 2026-05-05 20:54 | 35.75846 | -114.73695 | 33861 ft | 433 kts | 228° |
| 2026-05-05 20:55 | 35.71855 | -114.79167 | 33893 ft | 433 kts | 228° |
| 2026-05-05 20:55 | 35.67822 | -114.84690 | 33903 ft | 434 kts | 228° |
| 2026-05-05 20:56 | 35.63781 | -114.90221 | 33897 ft | 435 kts | 228° |
| 2026-05-05 20:56 | 35.59731 | -114.95777 | 33898 ft | 436 kts | 228° |
| 2026-05-05 20:57 | 35.55686 | -115.01319 | 33904 ft | 436 kts | 228° |
| 2026-05-05 20:57 | 35.51650 | -115.06837 | 33919 ft | 437 kts | 228° |
| 2026-05-05 20:58 | 35.47529 | -115.12340 | 33918 ft | 438 kts | 227° |
| 2026-05-05 20:58 | 35.43340 | -115.17772 | 33938 ft | 436 kts | 227° |
| 2026-05-05 20:59 | 35.39213 | -115.23123 | 33911 ft | 427 kts | 227° |
| 2026-05-05 20:59 | 35.35139 | -115.28417 | 33937 ft | 427 kts | 227° |
| 2026-05-05 21:00 | 35.31087 | -115.33684 | 33942 ft | 428 kts | 227° |
| 2026-05-05 21:00 | 35.26993 | -115.38999 | 33941 ft | 429 kts | 227° |
| 2026-05-05 21:01 | 35.22883 | -115.44323 | 33951 ft | 432 kts | 227° |
| 2026-05-05 21:01 | 35.18744 | -115.49678 | 33954 ft | 434 kts | 227° |
| 2026-05-05 21:02 | 35.14584 | -115.55053 | 33957 ft | 436 kts | 227° |
| 2026-05-05 21:02 | 35.10425 | -115.60407 | 33953 ft | 430 kts | 227° |
| 2026-05-05 21:03 | 35.06328 | -115.65641 | 33941 ft | 424 kts | 227° |
| 2026-05-05 21:03 | 35.02258 | -115.70835 | 33963 ft | 427 kts | 227° |
| 2026-05-05 21:04 | 34.98152 | -115.76071 | 33577 ft | 422 kts | 227° |
| 2026-05-05 21:04 | 34.96143 | -115.78630 | 33301 ft | 413 kts | 227° |
| 2026-05-05 21:04 | 34.94176 | -115.81134 | 33024 ft | 404 kts | 227° |
| 2026-05-05 21:05 | 34.92250 | -115.83584 | 32755 ft | 399 kts | 227° |
| 2026-05-05 21:05 | 34.90336 | -115.86018 | 32504 ft | 396 kts | 227° |
| 2026-05-05 21:05 | 34.88437 | -115.88431 | 32241 ft | 392 kts | 227° |
| 2026-05-05 21:05 | 34.86551 | -115.90826 | 31980 ft | 388 kts | 227° |
| 2026-05-05 21:06 | 34.84685 | -115.93193 | 31721 ft | 385 kts | 227° |
| 2026-05-05 21:06 | 34.82859 | -115.95510 | 31485 ft | 385 kts | 227° |
| 2026-05-05 21:06 | 34.80994 | -115.97875 | 31246 ft | 390 kts | 227° |
| 2026-05-05 21:06 | 34.79108 | -116.00265 | 31027 ft | 392 kts | 227° |
| 2026-05-05 21:07 | 34.77219 | -116.02655 | 30764 ft | 389 kts | 227° |
| 2026-05-05 21:07 | 34.75360 | -116.05015 | 30524 ft | 383 kts | 227° |
| 2026-05-05 21:07 | 34.73530 | -116.07345 | 30272 ft | 379 kts | 227° |
| 2026-05-05 21:07 | 34.71712 | -116.09664 | 30030 ft | 377 kts | 227° |
| 2026-05-05 21:08 | 34.69907 | -116.11965 | 29753 ft | 375 kts | 227° |
| 2026-05-05 21:08 | 34.68107 | -116.14256 | 29462 ft | 374 kts | 227° |
| 2026-05-05 21:08 | 34.66306 | -116.16547 | 29172 ft | 373 kts | 227° |
| 2026-05-05 21:08 | 34.64533 | -116.18800 | 28899 ft | 373 kts | 227° |
| 2026-05-05 21:09 | 34.62741 | -116.21076 | 28636 ft | 373 kts | 227° |
| 2026-05-05 21:09 | 34.60944 | -116.23356 | 28354 ft | 373 kts | 227° |
| 2026-05-05 21:09 | 34.59150 | -116.25630 | 28082 ft | 373 kts | 227° |
| 2026-05-05 21:09 | 34.57347 | -116.27912 | 27810 ft | 374 kts | 227° |
| 2026-05-05 21:10 | 34.55548 | -116.30192 | 27546 ft | 375 kts | 228° |
| 2026-05-05 21:10 | 34.53740 | -116.32480 | 27283 ft | 376 kts | 227° |
| 2026-05-05 21:10 | 34.51934 | -116.34767 | 27024 ft | 376 kts | 227° |
| 2026-05-05 21:10 | 34.50124 | -116.37056 | 26769 ft | 376 kts | 227° |
| 2026-05-05 21:11 | 34.48319 | -116.39337 | 26502 ft | 375 kts | 228° |
| 2026-05-05 21:11 | 34.46511 | -116.41620 | 26255 ft | 372 kts | 227° |
| 2026-05-05 21:11 | 34.44728 | -116.43868 | 25996 ft | 367 kts | 227° |
| 2026-05-05 21:11 | 34.42974 | -116.46076 | 25736 ft | 362 kts | 227° |
| 2026-05-05 21:12 | 34.41343 | -116.48356 | 25454 ft | 356 kts | 241° |
| 2026-05-05 21:12 | 34.40234 | -116.51005 | 25248 ft | 349 kts | 246° |
| 2026-05-05 21:12 | 34.39184 | -116.53659 | 25003 ft | 351 kts | 246° |
| 2026-05-05 21:12 | 34.38116 | -116.56327 | 24768 ft | 355 kts | 245° |
| 2026-05-05 21:13 | 34.37019 | -116.59026 | 24520 ft | 358 kts | 245° |
| 2026-05-05 21:13 | 34.35913 | -116.61726 | 24285 ft | 358 kts | 245° |
| 2026-05-05 21:13 | 34.34802 | -116.64420 | 24067 ft | 358 kts | 245° |
| 2026-05-05 21:13 | 34.33690 | -116.67112 | 23995 ft | 355 kts | 245° |
| 2026-05-05 21:14 | 34.32604 | -116.69768 | 23791 ft | 359 kts | 245° |
| 2026-05-05 21:14 | 34.31510 | -116.72488 | 23556 ft | 358 kts | 246° |
| 2026-05-05 21:14 | 34.30427 | -116.75188 | 23302 ft | 355 kts | 247° |
| 2026-05-05 21:14 | 34.29357 | -116.77856 | 22991 ft | 351 kts | 246° |
| 2026-05-05 21:15 | 34.28293 | -116.80500 | 22629 ft | 347 kts | 246° |
| 2026-05-05 21:15 | 34.27242 | -116.83114 | 22260 ft | 344 kts | 245° |
| 2026-05-05 21:15 | 34.26198 | -116.85706 | 21870 ft | 342 kts | 246° |
| 2026-05-05 21:15 | 34.25157 | -116.88284 | 21513 ft | 339 kts | 246° |
| 2026-05-05 21:16 | 34.24130 | -116.90833 | 21143 ft | 337 kts | 246° |
| 2026-05-05 21:16 | 34.23104 | -116.93372 | 20778 ft | 335 kts | 246° |
| 2026-05-05 21:16 | 34.22087 | -116.95885 | 20413 ft | 333 kts | 246° |
| 2026-05-05 21:16 | 34.21075 | -116.98396 | 20046 ft | 331 kts | 249° |
| 2026-05-05 21:17 | 34.20262 | -117.00968 | 19755 ft | 326 kts | 254° |
| 2026-05-05 21:17 | 34.19593 | -117.03588 | 19382 ft | 325 kts | 255° |
| 2026-05-05 21:17 | 34.18941 | -117.06197 | 19040 ft | 323 kts | 254° |
| 2026-05-05 21:17 | 34.18278 | -117.08749 | 18694 ft | 322 kts | 255° |
| 2026-05-05 21:18 | 34.17594 | -117.11311 | 18345 ft | 321 kts | 255° |
| 2026-05-05 21:18 | 34.16903 | -117.13868 | 17944 ft | 319 kts | 253° |
| 2026-05-05 21:18 | 34.16209 | -117.16417 | 17540 ft | 318 kts | 253° |
| 2026-05-05 21:18 | 34.15515 | -117.18942 | 17251 ft | 316 kts | 253° |
| 2026-05-05 21:19 | 34.14822 | -117.21455 | 16900 ft | 314 kts | 253° |
| 2026-05-05 21:19 | 34.14132 | -117.23959 | 16535 ft | 313 kts | 254° |
| 2026-05-05 21:19 | 34.13450 | -117.26436 | 16182 ft | 310 kts | 253° |
| 2026-05-05 21:19 | 34.12771 | -117.28902 | 15840 ft | 309 kts | 254° |
| 2026-05-05 21:20 | 34.12094 | -117.31359 | 15497 ft | 307 kts | 253° |
| 2026-05-05 21:20 | 34.11421 | -117.33793 | 15146 ft | 306 kts | 253° |
| 2026-05-05 21:20 | 34.10749 | -117.36226 | 14800 ft | 304 kts | 252° |
| 2026-05-05 21:20 | 34.10105 | -117.38649 | 14464 ft | 303 kts | 254° |
| 2026-05-05 21:21 | 34.09502 | -117.41076 | 14129 ft | 301 kts | 254° |
| 2026-05-05 21:21 | 34.08908 | -117.43483 | 13792 ft | 300 kts | 255° |
| 2026-05-05 21:21 | 34.08306 | -117.45896 | 13422 ft | 300 kts | 255° |
| 2026-05-05 21:21 | 34.07702 | -117.48309 | 13061 ft | 299 kts | 256° |
| 2026-05-05 21:22 | 34.07098 | -117.50711 | 12688 ft | 299 kts | 255° |
| 2026-05-05 21:22 | 34.06500 | -117.53064 | 12345 ft | 297 kts | 255° |
| 2026-05-05 21:22 | 34.05893 | -117.55437 | 12011 ft | 295 kts | 256° |
| 2026-05-05 21:22 | 34.05286 | -117.57805 | 11663 ft | 296 kts | 254° |
| 2026-05-05 21:23 | 34.04678 | -117.60183 | 11296 ft | 296 kts | 255° |
| 2026-05-05 21:23 | 34.04073 | -117.62552 | 10962 ft | 295 kts | 255° |
| 2026-05-05 21:23 | 34.03470 | -117.64906 | 10624 ft | 293 kts | 255° |
| 2026-05-05 21:23 | 34.02869 | -117.67249 | 10293 ft | 292 kts | 256° |
| 2026-05-05 21:24 | 34.02277 | -117.69559 | 10089 ft | 286 kts | 256° |
| 2026-05-05 21:24 | 34.01884 | -117.71871 | 9783 ft | 281 kts | 266° |
| 2026-05-05 21:24 | 34.01689 | -117.74208 | 9469 ft | 279 kts | 267° |
| 2026-05-05 21:24 | 34.01501 | -117.76533 | 9133 ft | 279 kts | 268° |
| 2026-05-05 21:25 | 34.01308 | -117.78859 | 8797 ft | 277 kts | 266° |
| 2026-05-05 21:25 | 34.01094 | -117.81155 | 8490 ft | 275 kts | 265° |
| 2026-05-05 21:25 | 34.00875 | -117.83434 | 8173 ft | 274 kts | 264° |
| 2026-05-05 21:25 | 34.00657 | -117.85695 | 7861 ft | 273 kts | 265° |
| 2026-05-05 21:26 | 34.00436 | -117.87967 | 7561 ft | 273 kts | 265° |
| 2026-05-05 21:26 | 34.00215 | -117.90241 | 7228 ft | 274 kts | 264° |
| 2026-05-05 21:26 | 33.99995 | -117.92493 | 6912 ft | 274 kts | 264° |
| 2026-05-05 21:26 | 33.99771 | -117.94776 | 6578 ft | 273 kts | 263° |
| 2026-05-05 21:27 | 33.99548 | -117.97044 | 6266 ft | 273 kts | 263° |
| 2026-05-05 21:27 | 33.99325 | -117.99315 | 5920 ft | 272 kts | 263° |
| 2026-05-05 21:27 | 33.99100 | -118.01574 | 5590 ft | 270 kts | 263° |
| 2026-05-05 21:27 | 33.98885 | -118.03731 | 5629 ft | 247 kts | 263° |
| 2026-05-05 21:28 | 33.98684 | -118.05706 | 5481 ft | 228 kts | 262° |
| 2026-05-05 21:28 | 33.98500 | -118.07539 | 5295 ft | 212 kts | 263° |
| 2026-05-05 21:28 | 33.98331 | -118.09232 | 5161 ft | 194 kts | 263° |
| 2026-05-05 21:28 | 33.98176 | -118.10800 | 4949 ft | 185 kts | 263° |
| 2026-05-05 21:29 | 33.98043 | -118.12333 | 4660 ft | 179 kts | 264° |
| 2026-05-05 21:29 | 33.97916 | -118.13820 | 4441 ft | 180 kts | 262° |
| 2026-05-05 21:29 | 33.97772 | -118.15319 | 4206 ft | 181 kts | 262° |
| 2026-05-05 21:29 | 33.97620 | -118.16819 | 3979 ft | 179 kts | 261° |
| 2026-05-05 21:30 | 33.97471 | -118.18265 | 3742 ft | 173 kts | 261° |
| 2026-05-05 21:30 | 33.97324 | -118.19683 | 3508 ft | 167 kts | 262° |
| 2026-05-05 21:30 | 33.97182 | -118.21073 | 3330 ft | 166 kts | 260° |
| 2026-05-05 21:30 | 33.97038 | -118.22444 | 3088 ft | 162 kts | 260° |
| 2026-05-05 21:31 | 33.96900 | -118.23770 | 2852 ft | 156 kts | 260° |
| 2026-05-05 21:31 | 33.96767 | -118.25062 | 2652 ft | 156 kts | 259° |
| 2026-05-05 21:31 | 33.96637 | -118.26320 | 2476 ft | 147 kts | 258° |
| 2026-05-05 21:31 | 33.96510 | -118.27527 | 2258 ft | 144 kts | 261° |
| 2026-05-05 21:32 | 33.96387 | -118.28731 | 2066 ft | 143 kts | 258° |
| 2026-05-05 21:32 | 33.96266 | -118.29902 | 1886 ft | 138 kts | 260° |
| 2026-05-05 21:32 | 33.96149 | -118.31041 | 1696 ft | 139 kts | 260° |
| 2026-05-05 21:32 | 33.96029 | -118.32200 | 1508 ft | 139 kts | 259° |
| 2026-05-05 21:33 | 33.95910 | -118.33354 | 1320 ft | 136 kts | 261° |
| 2026-05-05 21:33 | 33.95798 | -118.34450 | 1135 ft | 133 kts | 260° |
| 2026-05-05 21:33 | 33.95718 | -118.35211 | 996 ft | 143 kts | 262° |
| 2026-05-05 21:33 | 33.95558 | -118.36788 | 712 ft | 141 kts | 262° |
| 2026-05-05 21:34 | 33.95430 | -118.37928 | 556 ft | 136 kts | 260° |
| 2026-05-05 21:34 | 33.95322 | -118.39045 | 397 ft | 136 kts | 264° |
| 2026-05-05 21:34 | 33.95214 | -118.40165 | 187 ft | 134 kts | 262° |
| 2026-05-05 21:34 | 33.95139 | -118.40870 | 125 ft | 120 kts | 263° |
| 2026-05-05 21:35 | 33.95064 | -118.41606 | 124 ft | 63 kts | 263° |
| 2026-05-05 21:35 | 33.95001 | -118.42227 | 125 ft | 46 kts | 263° |
| 2026-05-05 21:35 | 33.94964 | -118.42463 | 123 ft | 40 kts | 254° |
| 2026-05-05 21:35 | 33.94862 | -118.42669 | 123 ft | 14 kts | 226° |
| 2026-05-05 21:36 | 33.94853 | -118.42679 | 124 ft | 0 kts | 224° |
| 2026-05-05 21:36 | 33.94852 | -118.42680 | 123 ft | 1 kts | 224° |
| 2026-05-05 21:37 | 33.94825 | -118.42711 | 124 ft | 10 kts | 222° |
| 2026-05-05 21:37 | 33.94768 | -118.42758 | 121 ft | 10 kts | 205° |
| 2026-05-05 21:37 | 33.94685 | -118.42779 | 123 ft | 13 kts | 181° |
| 2026-05-05 21:37 | 33.94635 | -118.42713 | 125 ft | 13 kts | 83° |
| 2026-05-05 21:38 | 33.94645 | -118.42610 | 125 ft | 12 kts | 83° |
| 2026-05-05 21:38 | 33.94655 | -118.42507 | 125 ft | 13 kts | 83° |
| 2026-05-05 21:38 | 33.94669 | -118.42368 | 125 ft | 20 kts | 83° |
| 2026-05-05 21:38 | 33.94686 | -118.42204 | 122 ft | 19 kts | 83° |
| 2026-05-05 21:39 | 33.94703 | -118.42047 | 125 ft | 19 kts | 82° |
| 2026-05-05 21:39 | 33.94719 | -118.41892 | 123 ft | 19 kts | 83° |
| 2026-05-05 21:39 | 33.94737 | -118.41711 | 125 ft | 25 kts | 83° |
| 2026-05-05 21:39 | 33.94758 | -118.41506 | 123 ft | 23 kts | 83° |
| 2026-05-05 21:40 | 33.94789 | -118.41338 | 125 ft | 19 kts | 82° |
| 2026-05-05 21:40 | 33.94805 | -118.41182 | 120 ft | 18 kts | 83° |
| 2026-05-05 21:40 | 33.94819 | -118.41045 | 123 ft | 15 kts | 83° |
| 2026-05-05 21:40 | 33.94830 | -118.40936 | 122 ft | 10 kts | 85° |
| 2026-05-05 21:41 | 33.94791 | -118.40881 | 122 ft | 9 kts | 176° |
| 2026-05-05 21:41 | 33.94776 | -118.40883 | 122 ft | 0 kts | 192° |
| 2026-05-05 21:41 | 33.94760 | -118.40883 | 121 ft | 7 kts | 169° |
| 2026-05-05 21:41 | 33.94721 | -118.40848 | 124 ft | 3 kts | 141° |
| 2026-05-05 21:42 | 33.94709 | -118.40836 | 122 ft | 2 kts | 141° |
| 2026-05-05 21:42 | 33.94704 | -118.40832 | 123 ft | 0 kts | 141° |